Time;durP1;ratioP1;P1;durP2;ratioP2;P2;SDS_P1;SDS_P2;PMS_P1;PMS_P2;Temp;Humidity;BMP_temperature;BMP_pressure;BME280_temperature;BME280_humidity;BME280_pressure;Samples;Min_cycle;Max_cycle;Signal;HPM_P1;HPM_P2
2023/08/10 00:01:29;;;;;;;10.95;5.15;;;15.90;99.90;;;;;;5053094;28;20025;-66
2023/08/10 00:03:55;;;;;;;14.73;5.65;;;15.80;99.90;;;;;;5052864;28;20029;-67
2023/08/10 00:06:20;;;;;;;11.60;4.25;;;15.80;99.90;;;;;;5052855;28;20025;-66
2023/08/10 00:08:46;;;;;;;7.97;3.33;;;15.80;99.90;;;;;;5052457;28;20035;-66
2023/08/10 00:11:12;;;;;;;9.18;2.60;;;15.70;99.90;;;;;;5052626;28;20107;-66
2023/08/10 00:13:37;;;;;;;7.97;2.72;;;15.70;99.90;;;;;;5051484;28;20074;-65
2023/08/10 00:16:03;;;;;;;5.80;2.50;;;15.70;99.90;;;;;;5052517;28;20135;-66
2023/08/10 00:18:29;;;;;;;7.07;2.17;;;15.60;99.90;;;;;;5052752;28;20028;-65
2023/08/10 00:20:54;;;;;;;9.60;3.25;;;15.60;99.90;;;;;;5052832;28;20041;-65
2023/08/10 00:23:20;;;;;;;14.82;4.97;;;15.60;99.90;;;;;;5052364;28;20033;-66
2023/08/10 00:25:45;;;;;;;8.60;3.10;;;15.50;99.90;;;;;;5052212;28;20032;-66
2023/08/10 00:28:11;;;;;;;10.60;4.40;;;15.60;99.90;;;;;;5052535;28;20033;-66
2023/08/10 00:30:38;;;;;;;7.88;3.88;;;15.50;99.90;;;;;;5052467;28;20032;-66
2023/08/10 00:33:04;;;;;;;7.15;2.83;;;15.50;99.90;;;;;;5052459;28;20037;-66
2023/08/10 00:35:31;;;;;;;8.75;3.05;;;15.50;99.90;;;;;;5052400;28;20048;-66
2023/08/10 00:37:56;;;;;;;9.88;3.83;;;15.40;99.90;;;;;;5052214;28;20045;-65
2023/08/10 00:40:22;;;;;;;7.38;3.00;;;15.40;99.90;;;;;;5052279;28;20425;-64
2023/08/10 00:42:47;;;;;;;12.50;4.68;;;15.40;99.90;;;;;;5052238;28;20111;-66
2023/08/10 00:45:13;;;;;;;7.65;3.65;;;15.30;99.90;;;;;;5051883;28;20067;-66
2023/08/10 00:47:40;;;;;;;9.98;3.60;;;15.30;99.90;;;;;;5052179;28;20082;-66
2023/08/10 00:50:06;;;;;;;10.40;2.70;;;15.30;99.90;;;;;;5052100;28;20037;-66
2023/08/10 00:52:33;;;;;;;9.50;3.50;;;15.30;99.90;;;;;;5052298;28;20043;-66
2023/08/10 00:55:00;;;;;;;8.73;3.40;;;15.20;99.90;;;;;;5051895;28;20067;-66
2023/08/10 00:57:25;;;;;;;13.43;4.00;;;15.20;99.90;;;;;;5052138;28;20044;-66
2023/08/10 00:59:52;;;;;;;9.48;3.45;;;15.20;99.90;;;;;;5050988;28;20120;-66
2023/08/10 01:02:18;;;;;;;9.40;2.88;;;15.20;99.90;;;;;;5052055;28;20088;-65
2023/08/10 01:04:43;;;;;;;6.78;2.42;;;15.20;99.90;;;;;;5051951;28;20029;-66
2023/08/10 01:07:33;;;;;;;8.75;2.65;;;15.20;99.90;;;;;;5052229;28;20029;-66
2023/08/10 01:10:06;;;;;;;9.40;4.22;;;15.20;99.90;;;;;;5052237;28;20029;-65
2023/08/10 01:12:49;;;;;;;6.40;2.63;;;15.20;99.90;;;;;;5052103;28;20032;-65
2023/08/10 01:15:59;;;;;;;7.63;3.00;;;15.20;99.90;;;;;;5052211;28;20033;-66
2023/08/10 01:18:26;;;;;;;8.45;2.83;;;15.20;99.90;;;;;;5029674;28;20041;-66
2023/08/10 01:20:54;;;;;;;8.00;2.55;;;15.10;99.90;;;;;;5048946;28;20097;-65
2023/08/10 01:23:31;;;;;;;8.50;3.00;;;15.10;99.90;;;;;;5052029;28;20041;-66
2023/08/10 01:25:58;;;;;;;8.45;3.33;;;15.00;99.90;;;;;;5052022;28;20040;-66
2023/08/10 01:28:26;;;;;;;9.73;3.72;;;15.00;99.90;;;;;;5051514;28;20040;-66
2023/08/10 01:30:52;;;;;;;6.43;2.50;;;15.00;99.90;;;;;;5051866;28;20029;-67
2023/08/10 01:33:18;;;;;;;9.38;2.80;;;14.90;99.90;;;;;;5051980;28;20107;-67
2023/08/10 01:35:44;;;;;;;6.75;2.65;;;14.90;99.90;;;;;;5052004;28;20048;-66
2023/08/10 01:38:10;;;;;;;7.97;3.17;;;14.80;99.90;;;;;;5051661;28;20079;-66
2023/08/10 01:40:36;;;;;;;13.50;3.13;;;14.80;99.90;;;;;;5051738;28;20037;-66
2023/08/10 01:43:02;;;;;;;8.80;2.85;;;14.80;99.90;;;;;;5051460;28;20048;-66
2023/08/10 01:45:29;;;;;;;9.57;2.60;;;14.80;99.90;;;;;;5051793;28;20373;-66
2023/08/10 01:48:03;;;;;;;8.48;2.70;;;14.70;99.90;;;;;;5051641;28;20021;-67
2023/08/10 01:50:32;;;;;;;9.07;3.60;;;14.70;99.90;;;;;;5051886;28;20064;-65
2023/08/10 01:53:05;;;;;;;10.27;3.22;;;14.70;99.90;;;;;;5051768;28;20029;-66
2023/08/10 01:55:31;;;;;;;7.97;2.72;;;14.70;99.90;;;;;;5051249;28;20029;-66
2023/08/10 01:57:57;;;;;;;7.80;3.20;;;14.70;99.90;;;;;;5055034;28;20173;-66
2023/08/10 02:00:23;;;;;;;7.20;3.25;;;14.70;99.90;;;;;;5055001;28;20381;-66
2023/08/10 02:02:48;;;;;;;8.05;3.30;;;14.70;99.90;;;;;;5055363;28;20449;-66
2023/08/10 02:05:14;;;;;;;8.25;3.10;;;14.60;99.90;;;;;;5055297;28;20075;-67
2023/08/10 02:07:41;;;;;;;6.65;3.03;;;14.60;99.90;;;;;;5055100;28;20025;-67
2023/08/10 02:10:10;;;;;;;12.27;3.47;;;14.60;99.90;;;;;;5054820;28;20090;-66
2023/08/10 02:12:36;;;;;;;10.05;3.80;;;14.70;99.90;;;;;;5055049;28;20029;-66
2023/08/10 02:15:02;;;;;;;9.93;3.38;;;14.70;99.90;;;;;;5054994;28;20546;-66
2023/08/10 02:17:29;;;;;;;9.55;3.05;;;14.80;99.90;;;;;;5055038;28;20037;-66
2023/08/10 02:19:56;;;;;;;10.20;3.90;;;14.70;99.90;;;;;;5054917;28;20108;-66
2023/08/10 02:22:22;;;;;;;6.68;2.75;;;14.70;99.90;;;;;;5055076;28;20056;-66
2023/08/10 02:24:47;;;;;;;7.93;2.83;;;14.70;99.90;;;;;;5054850;28;20029;-66
2023/08/10 02:27:13;;;;;;;7.95;2.78;;;14.70;99.90;;;;;;5055001;28;20040;-65
2023/08/10 02:29:39;;;;;;;7.43;2.97;;;14.70;99.90;;;;;;5054927;28;20025;-66
2023/08/10 02:32:04;;;;;;;11.30;3.10;;;14.70;99.90;;;;;;5054722;28;20492;-67
2023/08/10 02:34:30;;;;;;;7.60;3.08;;;14.70;99.90;;;;;;5054567;28;20056;-67
2023/08/10 02:36:55;;;;;;;9.93;3.10;;;14.60;99.90;;;;;;5054394;28;20040;-65
2023/08/10 02:39:21;;;;;;;15.93;3.28;;;14.60;99.90;;;;;;5054514;28;20025;-66
2023/08/10 02:41:46;;;;;;;10.85;3.00;;;14.60;99.90;;;;;;5054709;28;20029;-67
2023/08/10 02:44:12;;;;;;;7.70;3.05;;;14.60;99.90;;;;;;5036601;28;20032;-67
2023/08/10 02:46:37;;;;;;;11.27;2.90;;;14.60;99.90;;;;;;5054418;28;20029;-67
2023/08/10 02:49:03;;;;;;;9.20;2.90;;;14.60;99.90;;;;;;5054536;28;20033;-66
2023/08/10 02:51:29;;;;;;;13.20;3.10;;;14.60;99.90;;;;;;5054411;28;20025;-66
2023/08/10 02:53:55;;;;;;;7.78;2.85;;;14.70;99.90;;;;;;5054165;28;20040;-66
2023/08/10 02:56:20;;;;;;;10.95;2.88;;;14.70;99.90;;;;;;5054315;28;20473;-65
2023/08/10 02:58:46;;;;;;;14.30;3.20;;;14.70;99.90;;;;;;5054226;28;20025;-67
2023/08/10 03:01:11;;;;;;;11.57;2.75;;;14.70;99.90;;;;;;5054196;28;20029;-67
2023/08/10 03:03:37;;;;;;;9.65;3.30;;;14.70;99.90;;;;;;5054373;28;20495;-66
2023/08/10 03:06:02;;;;;;;10.35;2.78;;;14.70;99.90;;;;;;5054239;28;20039;-66
2023/08/10 03:08:28;;;;;;;11.18;2.83;;;14.70;99.90;;;;;;5053393;28;20105;-66
2023/08/10 03:10:54;;;;;;;14.30;3.53;;;14.70;99.90;;;;;;5054116;28;20029;-66
2023/08/10 03:13:19;;;;;;;11.57;3.92;;;14.70;99.90;;;;;;5053648;28;20029;-66
2023/08/10 03:15:45;;;;;;;10.23;3.35;;;14.70;99.90;;;;;;5053948;28;20040;-66
2023/08/10 03:18:11;;;;;;;6.97;3.03;;;14.70;99.90;;;;;;5053772;28;20044;-66
2023/08/10 03:20:37;;;;;;;6.43;2.60;;;14.70;99.90;;;;;;5053533;28;20028;-67
2023/08/10 03:23:03;;;;;;;10.55;3.17;;;14.70;99.90;;;;;;5053467;28;20033;-66
2023/08/10 03:25:29;;;;;;;9.63;3.15;;;14.70;99.90;;;;;;5053809;28;20082;-65
2023/08/10 03:27:55;;;;;;;11.73;3.03;;;14.70;99.90;;;;;;5053708;28;20473;-65
2023/08/10 03:30:20;;;;;;;12.13;3.17;;;14.70;99.90;;;;;;5053426;28;20099;-65
2023/08/10 03:32:46;;;;;;;7.90;3.00;;;14.70;99.90;;;;;;5053484;28;20028;-65
2023/08/10 03:35:13;;;;;;;7.88;3.08;;;14.70;99.90;;;;;;5053576;28;20451;-66
2023/08/10 03:37:38;;;;;;;10.25;3.17;;;14.70;99.90;;;;;;5053282;28;20039;-66
2023/08/10 03:40:04;;;;;;;10.80;3.55;;;14.80;99.90;;;;;;5053417;28;20112;-66
2023/08/10 03:42:30;;;;;;;11.00;3.50;;;14.80;99.90;;;;;;5053253;28;20033;-66
2023/08/10 03:44:56;;;;;;;12.27;3.60;;;14.80;99.90;;;;;;5053432;28;20025;-67
2023/08/10 03:47:22;;;;;;;8.85;3.28;;;14.80;99.90;;;;;;5053162;28;20028;-66
2023/08/10 03:49:48;;;;;;;9.82;3.03;;;14.80;99.90;;;;;;5053384;28;20036;-66
2023/08/10 03:52:14;;;;;;;14.27;3.83;;;14.80;99.90;;;;;;5053026;28;20033;-67
2023/08/10 03:54:39;;;;;;;13.00;3.50;;;14.70;99.90;;;;;;5053249;28;20025;-66
2023/08/10 03:57:05;;;;;;;11.40;3.90;;;14.70;99.90;;;;;;5052780;28;20033;-66
2023/08/10 03:59:30;;;;;;;9.73;3.33;;;14.70;99.90;;;;;;5053187;28;20025;-66
2023/08/10 04:01:56;;;;;;;12.05;3.85;;;14.70;99.90;;;;;;5053159;28;20025;-66
2023/08/10 04:04:22;;;;;;;7.30;3.67;;;14.70;99.90;;;;;;5053264;28;20041;-66
2023/08/10 04:06:47;;;;;;;11.43;3.92;;;14.70;99.90;;;;;;5052856;28;20033;-65
2023/08/10 04:09:13;;;;;;;13.30;3.75;;;14.70;99.90;;;;;;5052984;28;20036;-66
2023/08/10 04:11:39;;;;;;;10.15;3.92;;;14.70;99.90;;;;;;5053023;28;20021;-66
2023/08/10 04:14:04;;;;;;;12.43;4.40;;;14.70;99.90;;;;;;5053048;28;20460;-66
2023/08/10 04:16:31;;;;;;;11.30;4.15;;;14.70;99.90;;;;;;5052769;28;20108;-66
2023/08/10 04:18:57;;;;;;;15.27;4.45;;;14.70;99.90;;;;;;5052350;28;20108;-66
2023/08/10 04:21:23;;;;;;;11.90;4.57;;;14.70;99.90;;;;;;5052063;28;20033;-66
2023/08/10 04:23:48;;;;;;;13.25;4.55;;;14.70;99.90;;;;;;5050653;28;20035;-66
2023/08/10 04:26:14;;;;;;;14.57;4.60;;;14.70;99.90;;;;;;5051760;28;20455;-66
2023/08/10 04:28:39;;;;;;;10.68;4.88;;;14.80;99.90;;;;;;5052542;28;20048;-65
2023/08/10 04:31:05;;;;;;;9.82;4.82;;;14.80;99.90;;;;;;5051543;28;20391;-66
2023/08/10 04:33:31;;;;;;;19.67;5.10;;;14.70;99.90;;;;;;5052526;28;20024;-66
2023/08/10 04:35:57;;;;;;;9.88;4.70;;;14.80;99.90;;;;;;5052270;28;20052;-66
2023/08/10 04:38:23;;;;;;;13.88;5.38;;;14.80;99.90;;;;;;5052530;28;20044;-66
2023/08/10 04:40:48;;;;;;;21.67;5.70;;;14.80;99.90;;;;;;5052558;28;20021;-66
2023/08/10 04:43:14;;;;;;;12.40;5.13;;;14.90;99.90;;;;;;5052535;28;20025;-66
2023/08/10 04:45:41;;;;;;;16.63;5.55;;;14.90;99.90;;;;;;5052656;28;20431;-66
2023/08/10 04:48:07;;;;;;;9.65;5.13;;;14.90;99.90;;;;;;5050608;28;20025;-66
2023/08/10 04:50:33;;;;;;;14.07;5.70;;;14.90;99.90;;;;;;5051903;28;20037;-66
2023/08/10 04:52:59;;;;;;;14.30;6.10;;;15.00;99.90;;;;;;5052135;28;20074;-66
2023/08/10 04:55:25;;;;;;;12.45;5.97;;;15.10;99.90;;;;;;5052045;28;20025;-66
2023/08/10 04:57:52;;;;;;;16.60;5.97;;;15.10;99.90;;;;;;5051789;28;20095;-66
2023/08/10 05:00:18;;;;;;;15.50;6.45;;;15.10;99.90;;;;;;5051980;28;20033;-66
2023/08/10 05:02:43;;;;;;;14.32;6.18;;;15.20;99.90;;;;;;5050749;28;20487;-66
2023/08/10 05:05:10;;;;;;;10.50;5.40;;;15.20;99.90;;;;;;5050257;28;20028;-66
2023/08/10 05:07:37;;;;;;;11.15;5.35;;;15.30;99.90;;;;;;5051728;28;20032;-65
2023/08/10 05:10:05;;;;;;;13.02;5.50;;;15.40;99.90;;;;;;5051685;28;20068;-66
2023/08/10 05:12:31;;;;;;;14.23;5.75;;;15.50;99.90;;;;;;5051820;28;20025;-65
2023/08/10 05:14:57;;;;;;;12.88;5.65;;;15.50;99.90;;;;;;5051737;28;20029;-66
2023/08/10 05:17:23;;;;;;;13.32;5.90;;;15.60;99.90;;;;;;5052073;28;20207;-65
2023/08/10 05:19:48;;;;;;;14.38;5.72;;;15.80;99.90;;;;;;5051970;28;20029;-67
2023/08/10 05:22:14;;;;;;;14.07;6.10;;;16.00;99.90;;;;;;5050863;28;20029;-67
2023/08/10 05:24:40;;;;;;;12.73;6.05;;;16.10;99.90;;;;;;5051835;28;20029;-67
2023/08/10 05:27:05;;;;;;;10.63;5.32;;;16.30;99.90;;;;;;5052020;28;20099;-66
2023/08/10 05:29:31;;;;;;;8.75;5.45;;;16.40;99.90;;;;;;5051694;28;20052;-66
2023/08/10 05:31:57;;;;;;;12.07;5.43;;;16.50;99.90;;;;;;5053804;28;20064;-67
2023/08/10 05:34:22;;;;;;;8.90;5.20;;;16.60;99.90;;;;;;5055476;28;20049;-67
2023/08/10 05:36:48;;;;;;;15.75;6.28;;;16.70;99.90;;;;;;5055492;28;20037;-67
2023/08/10 05:39:14;;;;;;;10.10;4.82;;;16.80;99.90;;;;;;5056117;28;20056;-67
2023/08/10 05:41:39;;;;;;;11.10;4.82;;;16.90;99.90;;;;;;5055648;28;20025;-66
2023/08/10 05:44:05;;;;;;;10.85;4.90;;;17.00;99.90;;;;;;5054416;28;20025;-66
2023/08/10 05:46:31;;;;;;;16.33;5.68;;;17.10;99.90;;;;;;5055782;28;20200;-67
2023/08/10 05:48:56;;;;;;;12.88;4.78;;;17.20;99.90;;;;;;5055925;28;20033;-66
2023/08/10 05:51:22;;;;;;;8.70;4.32;;;17.30;99.90;;;;;;5055643;28;20112;-66
2023/08/10 05:53:48;;;;;;;9.07;4.70;;;17.40;99.90;;;;;;5055739;28;20170;-66
2023/08/10 05:56:13;;;;;;;14.18;5.15;;;17.40;99.90;;;;;;5055698;28;20079;-66
2023/08/10 05:58:39;;;;;;;11.13;4.68;;;17.60;99.90;;;;;;5055663;28;20061;-66
2023/08/10 06:01:05;;;;;;;8.48;5.20;;;17.70;99.90;;;;;;5053728;28;20021;-66
2023/08/10 06:03:30;;;;;;;9.25;4.22;;;17.80;99.90;;;;;;5055120;28;20029;-66
2023/08/10 06:05:56;;;;;;;11.32;4.88;;;18.00;99.90;;;;;;5055556;28;20040;-66
2023/08/10 06:08:22;;;;;;;8.90;4.80;;;18.20;99.90;;;;;;5055555;28;20372;-66
2023/08/10 06:10:50;;;;;;;10.80;4.65;;;18.40;99.90;;;;;;5055365;28;20074;-65
2023/08/10 06:13:18;;;;;;;8.15;4.28;;;18.60;99.90;;;;;;5055174;28;20124;-66
2023/08/10 06:15:45;;;;;;;10.35;4.03;;;18.80;99.90;;;;;;5054792;28;20032;-66
2023/08/10 06:18:11;;;;;;;17.00;9.10;;;19.00;99.90;;;;;;5055351;28;20057;-66
2023/08/10 06:20:36;;;;;;;12.60;4.95;;;19.20;99.90;;;;;;5054974;28;20060;-66
2023/08/10 06:23:02;;;;;;;9.30;4.47;;;19.30;99.90;;;;;;5055088;28;20071;-65
2023/08/10 06:25:30;;;;;;;9.93;4.50;;;19.30;99.90;;;;;;5055150;28;20029;-67
2023/08/10 06:27:57;;;;;;;9.70;3.90;;;19.40;99.90;;;;;;5054803;28;20495;-66
2023/08/10 06:30:23;;;;;;;8.18;4.25;;;19.50;99.90;;;;;;5054852;28;20033;-66
2023/08/10 06:32:49;;;;;;;12.20;5.63;;;19.40;99.90;;;;;;5054426;28;20040;-67
2023/08/10 06:35:14;;;;;;;18.55;10.32;;;19.50;99.90;;;;;;5054701;28;20102;-66
2023/08/10 06:37:40;;;;;;;11.90;5.10;;;19.60;99.90;;;;;;5054540;28;20087;-66
2023/08/10 06:40:08;;;;;;;16.80;7.85;;;19.70;99.90;;;;;;5054784;28;20028;-66
2023/08/10 06:42:35;;;;;;;16.27;7.15;;;20.50;99.90;;;;;;5052802;28;20790;-66
2023/08/10 06:45:02;;;;;;;19.95;10.07;;;21.70;99.90;;;;;;5054477;28;20037;-66
2023/08/10 06:47:28;;;;;;;10.10;5.05;;;22.90;99.90;;;;;;5054660;28;20017;-66
2023/08/10 06:49:53;;;;;;;14.57;6.78;;;24.10;99.90;;;;;;5053875;28;20060;-66
2023/08/10 06:52:19;;;;;;;7.35;3.83;;;25.10;99.90;;;;;;5054625;28;20082;-66
2023/08/10 06:54:44;;;;;;;7.45;3.20;;;25.80;98.60;;;;;;5053736;28;20028;-66
2023/08/10 06:57:10;;;;;;;10.90;5.85;;;26.30;97.70;;;;;;5054471;28;20029;-65
2023/08/10 06:59:36;;;;;;;8.73;4.28;;;26.60;97.00;;;;;;5054058;28;20071;-66
2023/08/10 07:02:01;;;;;;;9.10;4.45;;;27.20;97.00;;;;;;5054580;28;20029;-66
2023/08/10 07:04:27;;;;;;;4.28;2.03;;;27.80;95.80;;;;;;5054196;28;20483;-67
2023/08/10 07:06:53;;;;;;;6.80;3.50;;;28.40;94.80;;;;;;5054166;28;20385;-67
2023/08/10 07:09:19;;;;;;;7.65;4.13;;;28.70;94.30;;;;;;5054407;28;20029;-67
2023/08/10 07:11:45;;;;;;;13.65;4.93;;;28.40;94.00;;;;;;5054012;28;20496;-67
2023/08/10 07:14:10;;;;;;;4.93;2.20;;;27.90;94.50;;;;;;5053597;28;20041;-65
2023/08/10 07:16:36;;;;;;;11.75;5.22;;;27.10;94.90;;;;;;5052949;28;20423;-67
2023/08/10 07:19:01;;;;;;;6.90;3.30;;;26.30;95.90;;;;;;5054270;28;20496;-66
2023/08/10 07:21:27;;;;;;;7.13;3.58;;;25.70;96.20;;;;;;5051783;28;20389;-67
2023/08/10 07:23:53;;;;;;;7.47;3.17;;;25.20;96.90;;;;;;5054072;28;20066;-66
2023/08/10 07:26:19;;;;;;;6.70;2.92;;;24.60;97.40;;;;;;5052831;28;20461;-66
2023/08/10 07:28:45;;;;;;;8.80;3.67;;;24.00;98.20;;;;;;5053732;28;20056;-65
2023/08/10 07:31:11;;;;;;;11.93;5.50;;;23.70;98.70;;;;;;5053981;28;20507;-66
2023/08/10 07:33:37;;;;;;;9.20;3.65;;;23.70;99.20;;;;;;5053825;28;20029;-66
2023/08/10 07:36:03;;;;;;;4.60;2.30;;;23.70;99.10;;;;;;5053574;28;20374;-67
2023/08/10 07:38:28;;;;;;;8.50;4.40;;;23.80;98.90;;;;;;5052672;28;20040;-65
2023/08/10 07:40:54;;;;;;;6.03;2.58;;;23.80;98.80;;;;;;5045590;28;20076;-65
2023/08/10 07:43:20;;;;;;;4.90;2.30;;;24.00;98.20;;;;;;5033437;28;20079;-66
2023/08/10 07:45:46;;;;;;;6.60;3.50;;;24.10;98.20;;;;;;5033657;28;20116;-66
2023/08/10 07:48:11;;;;;;;6.95;2.97;;;24.30;98.50;;;;;;5033140;28;20033;-66
2023/08/10 07:50:37;;;;;;;5.65;3.10;;;24.90;98.00;;;;;;5033177;28;20048;-65
2023/08/10 07:53:03;;;;;;;9.68;4.05;;;25.30;97.80;;;;;;5033280;28;20071;-66
2023/08/10 07:55:29;;;;;;;6.63;3.30;;;25.50;97.30;;;;;;5032528;28;20520;-67
2023/08/10 07:57:54;;;;;;;6.88;3.92;;;25.40;97.00;;;;;;5033067;28;20045;-66
2023/08/10 08:00:20;;;;;;;7.25;3.78;;;25.10;96.60;;;;;;5051830;28;20029;-66
2023/08/10 08:02:45;;;;;;;10.68;3.30;;;24.90;97.00;;;;;;5052869;28;20033;-67
2023/08/10 08:05:11;;;;;;;7.20;4.07;;;24.80;97.70;;;;;;5053023;28;20434;-67
2023/08/10 08:07:37;;;;;;;8.57;1.92;;;24.70;97.30;;;;;;5051867;28;20079;-67
2023/08/10 08:10:03;;;;;;;7.40;2.60;;;24.60;97.50;;;;;;5053012;28;20433;-67
2023/08/10 08:12:29;;;;;;;9.50;3.97;;;24.30;97.70;;;;;;5052313;28;20029;-67
2023/08/10 08:14:55;;;;;;;7.55;2.30;;;24.10;98.20;;;;;;5052624;28;20052;-67
2023/08/10 08:17:22;;;;;;;8.35;2.53;;;24.00;98.50;;;;;;5052131;28;20041;-67
2023/08/10 08:19:55;;;;;;;5.43;2.47;;;23.90;98.70;;;;;;5052717;28;20080;-67
2023/08/10 08:22:21;;;;;;;5.32;2.70;;;23.80;98.80;;;;;;5051705;28;20029;-66
2023/08/10 08:24:50;;;;;;;11.65;2.88;;;23.60;99.10;;;;;;5051355;28;20028;-67
2023/08/10 08:27:15;;;;;;;9.93;2.90;;;23.60;99.20;;;;;;5052296;28;20547;-67
2023/08/10 08:29:41;;;;;;;7.30;3.25;;;23.60;99.20;;;;;;5052330;28;20039;-66
2023/08/10 08:32:07;;;;;;;7.88;3.55;;;23.70;99.30;;;;;;5051412;28;20033;-67
2023/08/10 08:34:35;;;;;;;8.77;2.83;;;23.90;99.10;;;;;;5050505;28;20024;-66
2023/08/10 08:37:01;;;;;;;6.45;2.72;;;24.10;99.20;;;;;;5052153;28;20053;-66
2023/08/10 08:39:26;;;;;;;6.05;2.33;;;24.30;99.00;;;;;;5052357;28;20039;-67
2023/08/10 08:41:54;;;;;;;5.85;2.50;;;24.50;98.40;;;;;;5052795;28;20033;-66
2023/08/10 08:44:20;;;;;;;9.32;3.03;;;24.50;98.40;;;;;;5052661;28;20358;-67
2023/08/10 08:46:48;;;;;;;7.75;2.95;;;24.60;98.20;;;;;;5052749;28;20112;-67
2023/08/10 08:49:15;;;;;;;8.27;2.80;;;24.50;98.20;;;;;;5052695;28;20124;-67
2023/08/10 08:51:41;;;;;;;2.22;1.65;;;24.50;97.80;;;;;;5052659;28;20036;-67
2023/08/10 08:54:07;;;;;;;8.82;2.65;;;24.30;97.40;;;;;;5052214;28;20035;-67
2023/08/10 08:56:32;;;;;;;7.60;1.90;;;24.10;97.90;;;;;;5052528;28;20071;-67
2023/08/10 08:58:58;;;;;;;7.00;2.40;;;23.90;98.20;;;;;;5052585;28;20112;-66
2023/08/10 09:01:25;;;;;;;8.48;2.67;;;23.80;98.30;;;;;;5051773;28;20037;-67
2023/08/10 09:03:50;;;;;;;8.82;2.58;;;23.70;98.60;;;;;;5052574;28;20075;-67
2023/08/10 09:06:16;;;;;;;10.70;2.40;;;23.60;98.60;;;;;;5053386;28;20029;-66
2023/08/10 09:08:42;;;;;;;7.13;2.47;;;23.60;98.60;;;;;;5056397;28;20025;-68
2023/08/10 09:11:09;;;;;;;8.52;2.47;;;23.50;98.60;;;;;;5056652;28;20376;-67
2023/08/10 09:13:35;;;;;;;9.50;2.60;;;23.40;98.70;;;;;;5054053;28;20021;-65
2023/08/10 09:16:12;;;;;;;6.28;2.17;;;23.50;98.90;;;;;;5055651;28;20031;-65
2023/08/10 09:18:40;;;;;;;8.98;2.83;;;24.10;98.40;;;;;;5056097;28;20420;-66
2023/08/10 09:21:19;;;;;;;13.15;3.65;;;25.00;97.00;;;;;;5056095;28;20449;-68
2023/08/10 09:23:47;;;;;;;8.45;3.38;;;25.50;95.70;;;;;;5060416;28;20024;-67
2023/08/10 09:26:16;;;;;;;10.63;4.63;;;26.10;95.20;;;;;;5070473;28;20031;-66
2023/08/10 09:28:41;;;;;;;11.13;3.58;;;26.50;94.60;;;;;;5055951;28;20029;-68
2023/08/10 09:31:10;;;;;;;8.52;3.10;;;26.60;93.80;;;;;;5067183;28;20036;-68
2023/08/10 09:33:37;;;;;;;9.45;4.13;;;26.40;93.90;;;;;;5076038;28;20024;-68
2023/08/10 09:36:05;;;;;;;11.25;3.42;;;26.40;94.50;;;;;;5075894;28;20052;-67
2023/08/10 09:38:31;;;;;;;7.97;3.40;;;26.60;94.10;;;;;;5074393;28;20028;-67
2023/08/10 09:41:11;;;;;;;5.38;2.70;;;26.70;94.10;;;;;;5055310;28;20079;-67
2023/08/10 09:43:41;;;;;;;7.70;3.20;;;26.80;93.40;;;;;;5055880;28;20049;-66
2023/08/10 09:46:09;;;;;;;13.68;3.40;;;26.80;93.70;;;;;;5055868;28;20047;-67
2023/08/10 09:48:40;;;;;;;9.35;3.00;;;26.90;93.10;;;;;;5055506;28;20377;-67
2023/08/10 09:51:06;;;;;;;8.93;2.85;;;26.90;92.60;;;;;;5054425;28;20068;-66
2023/08/10 09:53:33;;;;;;;11.20;3.67;;;27.00;92.70;;;;;;5055482;28;20032;-67
2023/08/10 09:56:00;;;;;;;6.50;2.70;;;27.10;92.70;;;;;;5055160;28;20389;-67
2023/08/10 09:58:27;;;;;;;10.63;3.50;;;27.50;92.70;;;;;;5055720;28;20036;-67
2023/08/10 10:00:52;;;;;;;14.98;4.20;;;27.80;92.40;;;;;;5054836;28;20033;-67
2023/08/10 10:03:22;;;;;;;6.35;2.47;;;28.10;92.30;;;;;;5055520;28;20071;-66
2023/08/10 10:05:50;;;;;;;5.22;2.60;;;28.10;91.20;;;;;;5052030;28;20029;-67
2023/08/10 10:08:17;;;;;;;3.50;2.00;;;27.70;91.60;;;;;;5054471;28;20040;-67
2023/08/10 10:10:44;;;;;;;7.28;3.00;;;27.40;91.80;;;;;;5052230;28;20049;-67
2023/08/10 10:13:13;;;;;;;9.25;3.08;;;27.20;92.40;;;;;;5054244;28;20025;-68
2023/08/10 10:15:40;;;;;;;7.93;2.75;;;27.00;92.40;;;;;;5053717;28;20033;-67
2023/08/10 10:18:06;;;;;;;9.35;3.33;;;26.90;92.40;;;;;;5053024;28;20048;-67
2023/08/10 10:20:34;;;;;;;5.60;2.13;;;27.00;92.40;;;;;;5054623;28;20025;-67
2023/08/10 10:23:01;;;;;;;12.68;3.92;;;27.10;91.80;;;;;;5053869;28;20021;-67
2023/08/10 10:25:27;;;;;;;11.02;3.83;;;27.10;92.10;;;;;;5053904;28;20025;-66
2023/08/10 10:27:52;;;;;;;4.88;1.92;;;27.10;92.30;;;;;;5054084;28;20025;-67
2023/08/10 10:30:21;;;;;;;8.45;2.45;;;27.00;92.30;;;;;;5054827;28;20029;-68
2023/08/10 10:32:50;;;;;;;6.95;2.28;;;27.00;92.70;;;;;;5054446;28;20029;-66
2023/08/10 10:35:31;;;;;;;7.10;2.33;;;27.10;92.60;;;;;;5054214;28;20476;-66
2023/08/10 10:37:58;;;;;;;15.02;6.93;;;27.20;92.40;;;;;;5053755;28;20047;-66
2023/08/10 10:40:25;;;;;;;8.05;3.53;;;27.00;92.30;;;;;;5053840;28;20040;-67
2023/08/10 10:43:03;;;;;;;10.85;3.85;;;26.90;92.10;;;;;;5054203;28;20020;-67
2023/08/10 10:45:37;;;;;;;5.70;3.00;;;27.00;92.30;;;;;;5052412;28;20028;-66
2023/08/10 10:48:05;;;;;;;10.75;3.45;;;26.90;92.40;;;;;;5051533;28;20029;-67
2023/08/10 10:50:32;;;;;;;7.07;2.65;;;26.90;92.10;;;;;;5054225;28;20036;-67
2023/08/10 10:53:02;;;;;;;8.52;2.88;;;26.90;92.00;;;;;;5053844;28;20064;-67
2023/08/10 10:55:48;;;;;;;8.30;3.20;;;26.90;92.00;;;;;;5051886;28;20082;-68
2023/08/10 10:58:15;;;;;;;8.25;2.83;;;26.90;92.00;;;;;;5052933;28;20108;-67
2023/08/10 11:00:43;;;;;;;7.00;2.40;;;26.80;91.90;;;;;;5054337;28;20037;-66
2023/08/10 11:03:10;;;;;;;6.93;2.67;;;26.90;91.70;;;;;;5054114;28;20035;-67
2023/08/10 11:05:36;;;;;;;9.07;3.13;;;26.90;91.40;;;;;;5069643;28;20036;-67
2023/08/10 11:08:06;;;;;;;7.05;2.95;;;26.90;91.70;;;;;;5068946;28;20028;-66
2023/08/10 11:10:36;;;;;;;9.52;3.53;;;27.10;91.80;;;;;;5053104;28;20405;-67
2023/08/10 11:13:06;;;;;;;8.50;3.85;;;27.40;91.50;;;;;;5054111;28;20420;-67
2023/08/10 11:15:33;;;;;;;9.60;3.30;;;27.50;91.30;;;;;;5054374;28;20095;-66
2023/08/10 11:17:58;;;;;;;6.38;3.13;;;27.60;91.00;;;;;;5052613;28;20469;-67
2023/08/10 11:20:25;;;;;;;13.10;5.72;;;27.80;91.10;;;;;;5054468;28;20524;-68
2023/08/10 11:22:52;;;;;;;9.85;3.45;;;28.20;91.00;;;;;;5054224;28;20031;-67
2023/08/10 11:25:20;;;;;;;6.68;2.67;;;28.60;90.70;;;;;;5054146;28;20033;-66
2023/08/10 11:27:49;;;;;;;11.32;4.13;;;28.90;90.10;;;;;;5053297;28;20021;-67
2023/08/10 11:30:20;;;;;;;10.93;4.15;;;29.00;90.40;;;;;;5061172;28;20031;-68
2023/08/10 11:32:47;;;;;;;7.60;3.50;;;29.20;90.40;;;;;;5048410;28;20035;-67
2023/08/10 11:35:17;;;;;;;7.72;3.50;;;29.20;90.10;;;;;;5052641;28;20520;-67
2023/08/10 11:37:43;;;;;;;9.57;4.65;;;29.00;90.10;;;;;;5052845;28;20357;-67
2023/08/10 11:40:16;;;;;;;9.48;2.90;;;29.10;90.20;;;;;;5052773;28;20489;-67
2023/08/10 11:42:49;;;;;;;8.43;3.75;;;29.30;90.00;;;;;;5052997;28;20086;-67
2023/08/10 11:45:20;;;;;;;7.50;3.20;;;29.50;89.40;;;;;;5062601;28;20032;-66
2023/08/10 11:47:52;;;;;;;7.65;2.72;;;29.60;89.40;;;;;;5073642;28;20017;-67
2023/08/10 11:50:20;;;;;;;9.07;4.05;;;29.50;87.90;;;;;;5051123;28;20025;-68
2023/08/10 11:52:46;;;;;;;7.88;2.50;;;29.40;88.80;;;;;;5053070;28;20029;-69
2023/08/10 11:55:14;;;;;;;9.20;3.83;;;29.50;88.20;;;;;;5053463;28;20032;-68
2023/08/10 11:57:42;;;;;;;11.85;4.00;;;29.40;88.30;;;;;;5052731;28;20396;-68
2023/08/10 12:00:30;;;;;;;7.90;4.00;;;29.50;88.70;;;;;;5052851;28;20078;-68
2023/08/10 12:03:15;;;;;;;9.25;2.85;;;29.80;88.70;;;;;;5067084;28;20025;-67
2023/08/10 12:05:49;;;;;;;12.02;5.10;;;30.00;88.00;;;;;;5072804;28;20047;-68
2023/08/10 12:08:28;;;;;;;10.88;4.07;;;30.40;88.00;;;;;;5073077;28;20037;-69
2023/08/10 12:11:04;;;;;;;6.85;2.33;;;30.80;87.30;;;;;;5073010;28;20098;-68
2023/08/10 12:13:30;;;;;;;8.32;2.97;;;30.90;85.50;;;;;;5072693;28;20031;-67
2023/08/10 12:15:58;;;;;;;12.15;5.15;;;31.00;86.10;;;;;;5073015;28;20527;-67
2023/08/10 12:18:24;;;;;;;8.27;2.85;;;31.10;86.40;;;;;;5072816;28;20028;-67
2023/08/10 12:20:51;;;;;;;9.27;3.30;;;31.10;84.80;;;;;;5072716;28;20032;-68
2023/08/10 12:23:17;;;;;;;8.88;3.30;;;31.10;84.60;;;;;;5072758;28;20071;-67
2023/08/10 12:25:44;;;;;;;7.75;3.35;;;31.20;85.20;;;;;;5072542;28;20538;-67
2023/08/10 12:28:11;;;;;;;7.63;3.15;;;31.40;84.70;;;;;;5072549;28;20115;-66
2023/08/10 12:30:37;;;;;;;6.88;2.83;;;31.50;83.60;;;;;;5072140;28;20024;-66
2023/08/10 12:33:04;;;;;;;6.75;2.10;;;31.50;82.70;;;;;;5072436;28;20124;-67
2023/08/10 12:35:30;;;;;;;9.27;4.28;;;31.60;82.80;;;;;;5071036;28;20071;-67
2023/08/10 12:37:56;;;;;;;7.22;4.03;;;31.50;83.40;;;;;;5052601;28;20040;-67
2023/08/10 12:40:21;;;;;;;8.13;3.33;;;31.40;82.00;;;;;;5051987;28;20381;-67
2023/08/10 12:42:47;;;;;;;7.45;3.25;;;31.30;83.60;;;;;;5051856;28;20029;-69